Time;durP1;ratioP1;P1;durP2;ratioP2;P2;SDS_P1;SDS_P2;PMS_P1;PMS_P2;Temp;Humidity;BMP_temperature;BMP_pressure;BME280_temperature;BME280_humidity;BME280_pressure;Samples;Min_cycle;Max_cycle;Signal;HPM_P1;HPM_P2
2023/06/27 00:00:25;;;;;;;6.18;1.90;;;15.60;99.90;;;;;;5031339;28;20045;-72
2023/06/27 00:02:53;;;;;;;4.40;2.00;;;15.60;99.90;;;;;;5032912;28;20049;-71
2023/06/27 00:05:19;;;;;;;5.10;1.90;;;15.50;99.90;;;;;;5033371;28;20099;-71
2023/06/27 00:07:44;;;;;;;4.35;1.77;;;15.50;99.90;;;;;;5030779;28;20473;-71
2023/06/27 00:10:11;;;;;;;5.93;1.80;;;15.50;99.90;;;;;;5032022;28;20049;-71
2023/06/27 00:12:37;;;;;;;4.13;1.90;;;15.50;99.90;;;;;;5031713;28;20053;-71
2023/06/27 00:15:06;;;;;;;3.72;2.10;;;15.50;99.90;;;;;;5031572;28;20397;-71
2023/06/27 00:17:33;;;;;;;3.33;1.65;;;15.50;99.90;;;;;;5031273;28;20132;-71
2023/06/27 00:20:00;;;;;;;4.32;2.22;;;15.50;99.90;;;;;;5033251;28;20041;-71
2023/06/27 00:22:26;;;;;;;4.25;1.80;;;15.50;99.90;;;;;;5032325;28;20080;-71
2023/06/27 00:24:53;;;;;;;4.60;1.75;;;15.50;99.90;;;;;;5032772;28;20068;-71
2023/06/27 00:27:22;;;;;;;4.28;2.10;;;15.50;99.90;;;;;;5031812;28;20057;-71
2023/06/27 00:29:48;;;;;;;3.20;1.55;;;15.50;99.90;;;;;;5030434;28;20076;-71
2023/06/27 00:32:14;;;;;;;6.07;1.75;;;15.50;99.90;;;;;;5031010;28;20049;-71
2023/06/27 00:34:40;;;;;;;5.15;1.70;;;15.50;99.90;;;;;;5032811;28;20053;-71
2023/06/27 00:37:06;;;;;;;4.13;1.90;;;15.50;99.90;;;;;;5030605;28;20056;-71
2023/06/27 00:39:32;;;;;;;4.18;1.90;;;15.50;99.90;;;;;;5031009;28;20060;-71
2023/06/27 00:41:59;;;;;;;6.70;1.80;;;15.50;99.90;;;;;;5029729;28;20489;-71
2023/06/27 00:44:24;;;;;;;5.40;1.60;;;15.50;99.90;;;;;;5031945;28;20117;-71
2023/06/27 00:46:51;;;;;;;5.00;2.00;;;15.50;99.90;;;;;;5030420;28;20481;-71
2023/06/27 00:49:19;;;;;;;4.72;1.70;;;15.50;99.90;;;;;;5031169;28;20041;-70
2023/06/27 00:51:47;;;;;;;3.83;1.80;;;15.50;99.90;;;;;;5030212;28;20057;-71
2023/06/27 00:54:15;;;;;;;5.10;1.70;;;15.50;99.90;;;;;;5031638;28;20045;-71
2023/06/27 00:56:41;;;;;;;4.05;1.83;;;15.40;99.90;;;;;;5031035;28;20049;-71
2023/06/27 00:59:06;;;;;;;7.43;1.90;;;15.50;99.90;;;;;;5030338;28;20045;-71
2023/06/27 01:01:32;;;;;;;4.32;1.77;;;15.40;99.90;;;;;;5031611;28;20046;-71
2023/06/27 01:03:58;;;;;;;6.22;2.08;;;15.40;99.90;;;;;;5030771;28;20041;-71
2023/06/27 01:06:42;;;;;;;5.63;1.83;;;15.40;99.90;;;;;;5030419;28;20132;-71
2023/06/27 01:09:42;;;;;;;4.75;2.15;;;15.50;99.90;;;;;;5030660;28;20092;-71
2023/06/27 01:12:31;;;;;;;7.07;2.10;;;15.40;99.90;;;;;;5029521;28;20053;-71
2023/06/27 01:14:59;;;;;;;6.15;2.53;;;15.40;99.90;;;;;;5029884;28;20049;-71
2023/06/27 01:17:27;;;;;;;5.63;2.20;;;15.40;99.90;;;;;;5045261;28;20051;-71
2023/06/27 01:19:54;;;;;;;6.47;2.30;;;15.40;99.90;;;;;;5049712;28;20107;-71
2023/06/27 01:22:28;;;;;;;5.57;2.17;;;15.40;99.90;;;;;;5050259;28;20049;-71
2023/06/27 01:24:54;;;;;;;6.53;2.20;;;15.40;99.90;;;;;;5038083;28;20042;-71
2023/06/27 01:27:20;;;;;;;5.68;2.05;;;15.30;99.90;;;;;;5030393;28;20047;-71
2023/06/27 01:29:45;;;;;;;3.55;2.05;;;15.30;99.90;;;;;;5032921;28;20080;-71
2023/06/27 01:32:18;;;;;;;6.22;1.95;;;15.30;99.90;;;;;;5032201;28;20056;-71
2023/06/27 01:34:44;;;;;;;6.32;2.15;;;15.30;99.90;;;;;;5033209;28;20057;-71
2023/06/27 01:37:25;;;;;;;5.32;1.92;;;15.30;99.90;;;;;;5033207;28;20056;-71
2023/06/27 01:39:57;;;;;;;6.15;2.33;;;15.30;99.90;;;;;;4989761;28;1259198;-71
2023/06/27 01:42:34;;;;;;;6.82;2.00;;;15.30;99.90;;;;;;5034774;28;20448;-71
2023/06/27 01:45:02;;;;;;;4.85;1.90;;;15.30;99.90;;;;;;5034644;28;20048;-71
2023/06/27 01:47:28;;;;;;;3.13;1.80;;;15.30;99.90;;;;;;5033654;28;20053;-71
2023/06/27 01:49:55;;;;;;;6.13;1.85;;;15.30;99.90;;;;;;5034007;28;20044;-71
2023/06/27 01:52:20;;;;;;;5.10;1.98;;;15.40;99.90;;;;;;5033508;28;20072;-71
2023/06/27 01:54:46;;;;;;;6.97;2.03;;;15.40;99.90;;;;;;5033610;28;20038;-71
2023/06/27 01:57:12;;;;;;;6.75;2.20;;;15.40;99.90;;;;;;5034507;28;20048;-71
2023/06/27 01:59:38;;;;;;;6.13;1.90;;;15.40;99.90;;;;;;5033531;28;20202;-71
2023/06/27 02:02:07;;;;;;;7.95;2.17;;;15.40;99.90;;;;;;5033654;28;20041;-71
2023/06/27 02:04:33;;;;;;;5.15;1.95;;;15.40;99.90;;;;;;5034082;28;20133;-71
2023/06/27 02:06:59;;;;;;;4.35;1.50;;;15.40;99.90;;;;;;5035157;28;20121;-71
2023/06/27 02:09:24;;;;;;;5.18;1.90;;;15.50;99.90;;;;;;5034149;28;20445;-71
2023/06/27 02:11:50;;;;;;;6.22;1.70;;;15.50;99.90;;;;;;5033563;28;20054;-71
2023/06/27 02:14:16;;;;;;;5.07;1.80;;;15.50;99.90;;;;;;5033388;28;20056;-71
2023/06/27 02:16:51;;;;;;;7.03;1.80;;;15.50;99.90;;;;;;5034079;28;20124;-71
2023/06/27 02:19:16;;;;;;;3.97;1.80;;;15.50;99.90;;;;;;5035157;28;20108;-71
2023/06/27 02:21:46;;;;;;;9.63;1.98;;;15.50;99.90;;;;;;5033981;28;20389;-71
2023/06/27 02:24:12;;;;;;;4.35;1.70;;;15.50;99.90;;;;;;5035472;28;20052;-71
2023/06/27 02:26:40;;;;;;;7.15;2.03;;;15.50;99.90;;;;;;5033738;28;20424;-71
2023/06/27 02:29:09;;;;;;;5.30;1.75;;;16.00;99.90;;;;;;5034767;28;20045;-71
2023/06/27 02:31:35;;;;;;;4.57;1.80;;;15.50;99.90;;;;;;5033312;28;20045;-71
2023/06/27 02:34:01;;;;;;;4.90;1.70;;;15.50;99.90;;;;;;5033113;28;20041;-71
2023/06/27 02:36:27;;;;;;;4.78;1.60;;;15.40;99.90;;;;;;5033123;28;20049;-71
2023/06/27 02:38:57;;;;;;;6.07;1.77;;;15.40;99.90;;;;;;5032878;28;20111;-71
2023/06/27 02:41:23;;;;;;;7.53;2.05;;;15.40;99.90;;;;;;5034004;28;20120;-71
2023/06/27 02:43:50;;;;;;;4.03;1.67;;;15.40;99.90;;;;;;5033528;28;20045;-71
2023/06/27 02:46:16;;;;;;;5.60;1.90;;;15.40;99.90;;;;;;5034469;28;20120;-71
2023/06/27 02:48:42;;;;;;;6.75;1.83;;;15.40;99.90;;;;;;5032839;28;20054;-71
2023/06/27 02:51:08;;;;;;;5.53;1.85;;;15.40;99.90;;;;;;5035013;28;20088;-71
2023/06/27 02:53:33;;;;;;;4.93;1.88;;;15.40;99.90;;;;;;5034304;28;20045;-71
2023/06/27 02:56:02;;;;;;;4.80;1.92;;;15.40;99.90;;;;;;5032662;28;20049;-71
2023/06/27 02:58:32;;;;;;;7.75;1.77;;;15.40;99.90;;;;;;5034755;28;20567;-71
2023/06/27 03:01:03;;;;;;;8.52;1.90;;;15.40;99.90;;;;;;5034122;28;20128;-71
2023/06/27 03:03:29;;;;;;;5.75;1.88;;;15.40;99.90;;;;;;5032598;28;20042;-71
2023/06/27 03:05:55;;;;;;;5.03;1.85;;;15.40;99.90;;;;;;5034090;28;20045;-71
2023/06/27 03:08:21;;;;;;;6.45;1.90;;;15.30;99.90;;;;;;5034698;28;20121;-71
2023/06/27 03:10:46;;;;;;;4.18;1.95;;;15.30;99.90;;;;;;5032627;28;20056;-71
2023/06/27 03:13:12;;;;;;;5.30;2.05;;;15.30;99.90;;;;;;5034567;28;20037;-70
2023/06/27 03:15:38;;;;;;;9.15;2.15;;;15.40;99.90;;;;;;5032574;28;20056;-71
2023/06/27 03:18:03;;;;;;;6.25;1.98;;;15.40;99.90;;;;;;5032630;28;20374;-71
2023/06/27 03:20:29;;;;;;;4.47;1.80;;;15.40;99.90;;;;;;5032785;28;20036;-71
2023/06/27 03:22:55;;;;;;;4.70;2.03;;;15.40;99.90;;;;;;5033783;28;20037;-71
2023/06/27 03:25:23;;;;;;;5.20;1.98;;;15.40;99.90;;;;;;5031780;28;20069;-71
2023/06/27 03:27:49;;;;;;;6.93;1.73;;;15.40;99.90;;;;;;5034119;28;20132;-71
2023/06/27 03:30:15;;;;;;;7.93;1.88;;;15.40;99.90;;;;;;5028350;28;20129;-71
2023/06/27 03:32:41;;;;;;;3.63;1.60;;;15.40;99.90;;;;;;5011764;28;20383;-71
2023/06/27 03:35:07;;;;;;;8.52;2.03;;;15.40;99.90;;;;;;5014722;28;20046;-70
2023/06/27 03:37:33;;;;;;;4.90;1.85;;;15.30;99.90;;;;;;5016093;28;20132;-70
2023/06/27 03:40:04;;;;;;;7.25;2.08;;;15.30;99.90;;;;;;5031754;28;20077;-71
2023/06/27 03:42:30;;;;;;;7.18;1.88;;;15.30;99.90;;;;;;5034529;28;20477;-75
2023/06/27 03:44:56;;;;;;;8.70;2.00;;;15.30;99.90;;;;;;5041676;28;20076;-71
2023/06/27 03:47:23;;;;;;;4.97;1.73;;;15.30;99.90;;;;;;5035111;28;20049;-71
2023/06/27 03:49:49;;;;;;;5.90;2.10;;;15.30;99.90;;;;;;5030818;28;20045;-71
2023/06/27 03:52:14;;;;;;;6.57;1.90;;;15.30;99.90;;;;;;5028910;28;20096;-71
2023/06/27 03:54:46;;;;;;;4.50;1.75;;;15.30;99.90;;;;;;5032309;28;20057;-71
2023/06/27 03:57:12;;;;;;;9.13;1.98;;;15.30;99.90;;;;;;5032454;28;20049;-72
2023/06/27 03:59:38;;;;;;;5.60;1.90;;;15.30;99.90;;;;;;5032624;28;20051;-71
2023/06/27 04:02:04;;;;;;;3.53;1.63;;;15.30;99.90;;;;;;5033401;28;20504;-73
2023/06/27 04:04:29;;;;;;;3.80;1.60;;;15.30;99.90;;;;;;5033173;28;20378;-71
2023/06/27 04:06:55;;;;;;;5.03;1.73;;;15.30;99.90;;;;;;5031272;28;20050;-71
2023/06/27 04:09:21;;;;;;;3.80;1.55;;;15.40;99.90;;;;;;5032072;28;20064;-71
2023/06/27 04:11:47;;;;;;;7.95;1.60;;;15.40;99.90;;;;;;5032836;28;20086;-71
2023/06/27 04:14:17;;;;;;;5.07;1.75;;;15.40;99.90;;;;;;5031523;28;20139;-71
2023/06/27 04:16:44;;;;;;;6.72;1.70;;;15.40;99.90;;;;;;5032817;28;20077;-71
2023/06/27 04:19:09;;;;;;;5.05;1.65;;;15.50;99.90;;;;;;5031860;28;20052;-71
2023/06/27 04:21:38;;;;;;;6.38;1.42;;;15.50;99.90;;;;;;5031703;28;20401;-71
2023/06/27 04:24:07;;;;;;;5.53;1.55;;;15.50;99.90;;;;;;5033366;28;20045;-71
2023/06/27 04:26:33;;;;;;;4.90;1.63;;;15.50;99.90;;;;;;5032457;28;20057;-71
2023/06/27 04:28:58;;;;;;;6.93;1.55;;;15.60;99.90;;;;;;5030535;28;20440;-71
2023/06/27 04:31:25;;;;;;;8.82;2.40;;;15.60;99.90;;;;;;5031192;28;20411;-72
2023/06/27 04:33:55;;;;;;;4.70;1.50;;;15.70;99.90;;;;;;5031271;28;20060;-80
2023/06/27 04:36:25;;;;;;;4.30;1.60;;;15.70;99.90;;;;;;5033180;28;20053;-75
2023/06/27 04:38:51;;;;;;;6.13;1.90;;;15.80;99.90;;;;;;5032461;28;20119;-77
2023/06/27 04:41:17;;;;;;;5.78;1.30;;;15.80;99.90;;;;;;5030683;28;20504;-77
2023/06/27 04:43:42;;;;;;;4.70;1.30;;;15.90;99.90;;;;;;5031869;28;20104;-77
2023/06/27 04:46:11;;;;;;;5.05;1.50;;;15.90;99.90;;;;;;5031350;28;20049;-77
2023/06/27 04:48:37;;;;;;;7.43;1.27;;;16.00;99.90;;;;;;5030502;28;20045;-76
2023/06/27 04:51:03;;;;;;;5.15;1.60;;;16.10;99.90;;;;;;5032725;28;20046;-78
2023/06/27 04:53:30;;;;;;;4.95;1.38;;;16.20;99.90;;;;;;5031501;28;20049;-81
2023/06/27 04:55:56;;;;;;;7.38;1.42;;;16.20;99.90;;;;;;5029928;28;20132;-81
2023/06/27 04:58:21;;;;;;;6.10;1.48;;;16.30;99.90;;;;;;5033030;28;20124;-80
2023/06/27 05:00:48;;;;;;;5.20;1.30;;;16.40;99.90;;;;;;5030911;28;20084;-76
2023/06/27 05:03:14;;;;;;;6.43;1.48;;;16.40;99.90;;;;;;5031644;28;20085;-75
2023/06/27 05:05:40;;;;;;;7.75;1.40;;;16.50;99.90;;;;;;5032694;28;20077;-75
2023/06/27 05:08:06;;;;;;;7.47;1.40;;;16.50;99.90;;;;;;5030694;28;20077;-76
2023/06/27 05:10:33;;;;;;;3.85;1.10;;;16.60;99.90;;;;;;5031192;28;20048;-74
2023/06/27 05:12:59;;;;;;;6.18;1.65;;;16.60;99.90;;;;;;5032267;28;20505;-74
2023/06/27 05:15:26;;;;;;;5.28;1.27;;;16.70;99.90;;;;;;5031490;28;20106;-74
2023/06/27 05:17:54;;;;;;;2.83;1.55;;;16.80;99.90;;;;;;5031403;28;20042;-73
2023/06/27 05:20:20;;;;;;;5.75;1.65;;;16.90;99.90;;;;;;5030690;28;20052;-74
2023/06/27 05:22:46;;;;;;;3.85;1.13;;;16.90;99.90;;;;;;5031918;28;20476;-72
2023/06/27 05:25:12;;;;;;;3.15;1.10;;;17.00;99.90;;;;;;5030111;28;20080;-72
2023/06/27 05:27:37;;;;;;;5.28;1.33;;;17.10;99.90;;;;;;5030407;28;20405;-75
2023/06/27 05:30:04;;;;;;;4.85;1.48;;;17.20;99.90;;;;;;5030536;28;20056;-74
2023/06/27 05:32:30;;;;;;;5.50;1.20;;;17.20;99.90;;;;;;5029815;28;20045;-71
2023/06/27 05:34:56;;;;;;;6.13;1.33;;;17.30;99.90;;;;;;5025161;28;20037;-72
2023/06/27 05:37:21;;;;;;;6.80;1.33;;;17.40;99.90;;;;;;5030285;28;20072;-71
2023/06/27 05:39:50;;;;;;;6.70;1.50;;;17.50;99.90;;;;;;5010422;28;20129;-72
2023/06/27 05:42:16;;;;;;;7.88;1.40;;;17.50;99.90;;;;;;5010530;28;20053;-70
2023/06/27 05:44:41;;;;;;;4.68;1.38;;;17.60;99.90;;;;;;5009315;28;20034;-71
2023/06/27 05:47:07;;;;;;;5.25;1.40;;;17.70;99.90;;;;;;5010203;28;20041;-72
2023/06/27 05:49:33;;;;;;;7.68;1.73;;;17.70;99.90;;;;;;5010045;28;20053;-72
2023/06/27 05:51:58;;;;;;;8.05;1.60;;;17.80;99.90;;;;;;5009090;28;20046;-71
2023/06/27 05:54:24;;;;;;;7.85;1.58;;;17.80;99.90;;;;;;5011241;28;20462;-71
2023/06/27 05:56:50;;;;;;;4.28;1.20;;;17.90;99.90;;;;;;5010139;28;20046;-71
2023/06/27 05:59:15;;;;;;;6.90;1.35;;;18.00;99.90;;;;;;5009040;28;20046;-70
2023/06/27 06:01:41;;;;;;;7.18;1.52;;;18.00;99.90;;;;;;5010112;28;20061;-71
2023/06/27 06:04:07;;;;;;;6.45;1.60;;;18.20;99.90;;;;;;5010065;28;20046;-71
2023/06/27 06:06:38;;;;;;;4.38;1.45;;;18.30;99.90;;;;;;5009395;28;20045;-72
2023/06/27 06:09:07;;;;;;;7.15;1.50;;;18.40;99.90;;;;;;5010493;28;20054;-72
2023/06/27 06:11:36;;;;;;;6.03;1.40;;;18.50;99.90;;;;;;5009911;28;20505;-72
2023/06/27 06:14:03;;;;;;;3.55;1.20;;;18.60;99.90;;;;;;5009564;28;20046;-72
2023/06/27 06:16:32;;;;;;;4.80;1.38;;;18.80;99.90;;;;;;5013920;28;20050;-72
2023/06/27 06:18:59;;;;;;;6.70;1.50;;;19.00;99.90;;;;;;5014503;28;20037;-72
2023/06/27 06:21:25;;;;;;;3.50;1.27;;;19.10;99.90;;;;;;5014194;28;20521;-72
2023/06/27 06:23:51;;;;;;;6.88;1.45;;;19.20;99.90;;;;;;5014421;28;20529;-72
2023/06/27 06:26:16;;;;;;;4.82;1.23;;;19.40;99.90;;;;;;5014622;28;20048;-73
2023/06/27 06:28:42;;;;;;;6.13;1.48;;;19.60;99.90;;;;;;5013892;28;20034;-72
2023/06/27 06:31:10;;;;;;;4.78;1.25;;;19.70;99.90;;;;;;5013802;28;20402;-74
2023/06/27 06:33:38;;;;;;;5.13;1.20;;;19.80;99.90;;;;;;5012567;28;20061;-73
2023/06/27 06:36:06;;;;;;;6.45;1.42;;;19.90;99.90;;;;;;5014209;28;20068;-72
2023/06/27 06:38:32;;;;;;;6.00;1.20;;;20.00;99.90;;;;;;5028767;28;20057;-73
2023/06/27 06:40:58;;;;;;;7.45;1.60;;;20.10;99.90;;;;;;5036215;28;20132;-72
2023/06/27 06:43:27;;;;;;;4.22;1.17;;;20.10;99.90;;;;;;5037041;28;20186;-72
2023/06/27 06:45:53;;;;;;;6.20;1.40;;;20.20;99.90;;;;;;5036777;28;20045;-72
2023/06/27 06:48:22;;;;;;;8.15;1.67;;;20.30;99.90;;;;;;5035563;28;20081;-72
2023/06/27 06:50:50;;;;;;;5.35;1.48;;;20.40;99.90;;;;;;5033406;28;20045;-72
2023/06/27 06:53:17;;;;;;;7.68;1.30;;;20.50;99.90;;;;;;5043458;28;20069;-72
2023/06/27 06:55:43;;;;;;;5.82;1.30;;;20.60;99.90;;;;;;5034288;28;20048;-72
2023/06/27 06:58:09;;;;;;;7.15;1.95;;;20.70;99.90;;;;;;5052736;28;20048;-74
2023/06/27 07:00:35;;;;;;;5.22;1.45;;;20.70;99.90;;;;;;5034345;28;20041;-74
2023/06/27 07:03:01;;;;;;;5.38;1.50;;;20.70;99.90;;;;;;5052656;28;20488;-72
2023/06/27 07:05:26;;;;;;;6.22;1.40;;;20.80;99.90;;;;;;5028429;28;20504;-73
2023/06/27 07:07:52;;;;;;;7.28;1.30;;;20.90;99.90;;;;;;5049226;28;20353;-73
2023/06/27 07:10:18;;;;;;;5.82;1.38;;;21.00;99.90;;;;;;5032981;28;20037;-72
2023/06/27 07:12:44;;;;;;;3.70;1.25;;;21.00;99.90;;;;;;5027921;28;20129;-73
2023/06/27 07:15:09;;;;;;;5.00;1.20;;;21.00;99.90;;;;;;5026750;28;20047;-73
2023/06/27 07:17:35;;;;;;;5.57;1.55;;;20.90;99.90;;;;;;5037957;28;20124;-74
2023/06/27 07:20:04;;;;;;;7.55;1.60;;;20.90;99.90;;;;;;5049503;28;20037;-74
2023/06/27 07:22:30;;;;;;;6.65;1.67;;;20.80;99.90;;;;;;5023702;28;20132;-73
2023/06/27 07:24:56;;;;;;;4.07;1.38;;;20.80;99.90;;;;;;5040374;28;20486;-74
2023/06/27 07:27:22;;;;;;;4.20;1.40;;;21.00;99.90;;;;;;5021972;28;20140;-72
2023/06/27 07:29:47;;;;;;;5.18;1.17;;;21.00;99.90;;;;;;5030665;28;20049;-73
2023/06/27 07:32:13;;;;;;;4.85;1.20;;;21.10;99.90;;;;;;5043410;28;20053;-73
2023/06/27 07:34:42;;;;;;;6.10;1.17;;;21.20;99.90;;;;;;5028125;28;20053;-72
2023/06/27 07:37:07;;;;;;;6.88;1.67;;;21.20;99.90;;;;;;5023597;28;20049;-72
2023/06/27 07:39:33;;;;;;;7.60;1.45;;;21.50;99.90;;;;;;5047002;28;20048;-73
2023/06/27 07:41:59;;;;;;;5.72;1.48;;;21.70;99.90;;;;;;5041844;28;20132;-72
2023/06/27 07:44:25;;;;;;;6.47;1.40;;;21.70;99.90;;;;;;5037347;28;20576;-74
2023/06/27 07:46:51;;;;;;;6.45;1.10;;;21.70;99.90;;;;;;5044248;28;20261;-74
2023/06/27 07:49:17;;;;;;;2.92;1.10;;;21.70;99.90;;;;;;5045039;28;20120;-73
2023/06/27 07:51:49;;;;;;;5.03;1.08;;;21.60;99.30;;;;;;5041215;28;20053;-73
2023/06/27 07:54:15;;;;;;;5.75;1.27;;;21.80;99.70;;;;;;5021805;28;20049;-73
2023/06/27 07:56:41;;;;;;;3.03;1.15;;;22.10;99.30;;;;;;5027321;28;20394;-74
2023/06/27 07:59:08;;;;;;;5.70;1.30;;;22.40;99.20;;;;;;5024824;28;20484;-73
2023/06/27 08:01:34;;;;;;;4.38;1.40;;;22.60;98.90;;;;;;5019695;28;20133;-73
2023/06/27 08:04:00;;;;;;;3.67;1.10;;;22.90;98.30;;;;;;5048692;28;20115;-74
2023/06/27 08:06:25;;;;;;;5.78;1.48;;;23.20;97.30;;;;;;5037489;28;20402;-73
2023/06/27 08:08:51;;;;;;;5.07;1.10;;;23.70;97.30;;;;;;5026230;28;20157;-74
2023/06/27 08:11:17;;;;;;;7.20;1.10;;;24.20;96.70;;;;;;5033208;28;20510;-73
2023/06/27 08:13:43;;;;;;;5.32;1.30;;;24.70;94.10;;;;;;5046518;28;20045;-73
2023/06/27 08:16:09;;;;;;;5.57;1.23;;;25.20;93.80;;;;;;5026378;28;20041;-71
2023/06/27 08:18:35;;;;;;;4.15;0.90;;;25.30;93.00;;;;;;5036340;28;20072;-72
2023/06/27 08:21:01;;;;;;;3.42;1.10;;;25.40;92.40;;;;;;5028846;28;20045;-72
2023/06/27 08:23:27;;;;;;;4.35;1.25;;;25.30;91.20;;;;;;5016097;28;20053;-71
2023/06/27 08:25:54;;;;;;;6.72;1.05;;;25.20;91.10;;;;;;5051777;28;20059;-71
2023/06/27 08:28:20;;;;;;;4.63;1.27;;;24.50;90.30;;;;;;5052636;28;20116;-72
2023/06/27 08:30:46;;;;;;;4.80;1.30;;;24.10;91.40;;;;;;5052829;28;20041;-70
2023/06/27 08:33:12;;;;;;;5.78;1.20;;;23.80;92.80;;;;;;5024967;28;20049;-72
2023/06/27 08:35:38;;;;;;;7.13;1.30;;;23.70;93.40;;;;;;5035876;28;20127;-71
2023/06/27 08:38:09;;;;;;;7.93;1.30;;;23.30;93.50;;;;;;5022974;28;20053;-71
2023/06/27 08:40:36;;;;;;;9.57;1.48;;;23.20;93.70;;;;;;5023152;28;20045;-73
2023/06/27 08:43:04;;;;;;;7.10;1.30;;;23.00;93.50;;;;;;5031443;28;20139;-72
2023/06/27 08:45:30;;;;;;;3.65;1.02;;;22.90;94.00;;;;;;5015134;28;20037;-73
2023/06/27 08:47:59;;;;;;;4.20;1.02;;;22.90;94.00;;;;;;5023271;28;20080;-73
2023/06/27 08:50:26;;;;;;;5.00;1.52;;;22.90;93.50;;;;;;5021623;28;20087;-74
2023/06/27 08:52:57;;;;;;;5.47;1.20;;;22.90;94.40;;;;;;5015849;28;20053;-74
2023/06/27 08:55:30;;;;;;;8.55;2.05;;;22.80;93.90;;;;;;5029197;28;20410;-72
2023/06/27 08:57:58;;;;;;;4.38;1.10;;;22.70;94.40;;;;;;5012843;28;20092;-72
2023/06/27 09:00:26;;;;;;;5.32;1.38;;;22.60;94.90;;;;;;5025705;28;20392;-74
2023/06/27 09:02:53;;;;;;;4.82;1.50;;;22.50;94.80;;;;;;5013357;28;20472;-72
2023/06/27 09:05:19;;;;;;;2.42;0.85;;;22.30;95.50;;;;;;5032242;28;20049;-74
2023/06/27 09:07:45;;;;;;;4.55;0.98;;;22.40;93.80;;;;;;5023790;28;20037;-73
2023/06/27 09:10:14;;;;;;;7.78;1.73;;;22.40;94.20;;;;;;5018158;28;20573;-74
2023/06/27 09:12:42;;;;;;;5.60;1.50;;;22.40;94.40;;;;;;5028850;28;20125;-73
2023/06/27 09:15:10;;;;;;;5.18;1.20;;;22.70;94.40;;;;;;5031361;28;20042;-74
2023/06/27 09:17:36;;;;;;;5.93;1.48;;;22.80;94.30;;;;;;5030292;28;20041;-73
2023/06/27 09:20:06;;;;;;;8.40;1.70;;;23.10;94.10;;;;;;5030800;28;20053;-74
2023/06/27 09:22:32;;;;;;;5.60;1.27;;;23.40;93.90;;;;;;5030548;28;20049;-74
2023/06/27 09:25:16;;;;;;;5.40;1.42;;;23.60;93.60;;;;;;5031206;28;20049;-73
2023/06/27 09:27:42;;;;;;;6.60;1.75;;;23.70;93.10;;;;;;5031397;28;20056;-74
2023/06/27 09:30:10;;;;;;;8.40;1.27;;;23.70;93.30;;;;;;5019354;28;20053;-73
2023/06/27 09:32:58;;;;;;;4.72;1.38;;;23.60;93.10;;;;;;5020204;28;20050;-73
2023/06/27 09:35:26;;;;;;;6.63;1.30;;;23.70;92.80;;;;;;5027911;28;20054;-77
2023/06/27 09:38:02;;;;;;;5.45;1.23;;;23.70;92.40;;;;;;5031885;28;20049;-73
2023/06/27 09:40:28;;;;;;;;;;;23.50;91.50;;;;;;5052148;28;20045;-73
2023/06/27 09:42:58;;;;;;;6.90;1.13;;;23.80;91.70;;;;;;5051851;28;19928;-74
2023/06/27 09:45:29;;;;;;;6.22;1.13;;;23.90;91.90;;;;;;5050866;28;20037;-74
2023/06/27 09:47:55;;;;;;;4.47;1.20;;;24.10;90.30;;;;;;5032994;28;20045;-74
2023/06/27 09:50:29;;;;;;;3.15;1.00;;;24.30;90.80;;;;;;5036428;28;20052;-74
2023/06/27 09:52:59;;;;;;;6.15;1.27;;;24.40;90.90;;;;;;5038037;28;20396;-74
2023/06/27 09:55:26;;;;;;;3.72;1.23;;;24.70;91.50;;;;;;5056078;28;20036;-74
2023/06/27 09:57:52;;;;;;;5.57;1.23;;;25.00;89.00;;;;;;5036238;28;20053;-74
2023/06/27 10:00:20;;;;;;;3.53;1.00;;;25.20;89.90;;;;;;5037758;28;20053;-75
2023/06/27 10:02:50;;;;;;;4.45;1.20;;;25.60;88.90;;;;;;5037237;28;20488;-73
2023/06/27 10:05:17;;;;;;;3.88;1.35;;;26.10;88.40;;;;;;5036809;28;20079;-73
2023/06/27 10:07:44;;;;;;;5.57;1.30;;;26.40;89.00;;;;;;5055662;28;20049;-74
2023/06/27 10:10:10;;;;;;;4.38;1.08;;;26.80;89.10;;;;;;5037703;28;20114;-74
2023/06/27 10:12:36;;;;;;;6.47;1.20;;;26.70;88.30;;;;;;5032936;28;20057;-73
2023/06/27 10:15:04;;;;;;;3.80;1.10;;;26.40;88.20;;;;;;5031147;28;20052;-73
2023/06/27 10:17:29;;;;;;;5.00;1.30;;;26.00;87.30;;;;;;5043620;28;20045;-73
2023/06/27 10:19:57;;;;;;;7.20;1.33;;;25.70;88.50;;;;;;5036699;28;20366;-74
2023/06/27 10:22:28;;;;;;;5.97;1.30;;;25.60;89.80;;;;;;5054395;28;20049;-74
2023/06/27 10:25:04;;;;;;;3.88;1.13;;;25.40;89.90;;;;;;5036738;28;20045;-74
2023/06/27 10:27:34;;;;;;;4.03;1.30;;;25.70;90.10;;;;;;5036713;28;20099;-73
2023/06/27 10:30:19;;;;;;;4.65;1.40;;;25.60;89.00;;;;;;5035799;28;20462;-74
2023/06/27 10:32:45;;;;;;;7.30;1.45;;;25.30;89.70;;;;;;5054258;28;20555;-74
2023/06/27 10:35:27;;;;;;;7.22;1.30;;;25.60;89.10;;;;;;5036781;28;20049;-74
2023/06/27 10:38:13;;;;;;;4.80;1.00;;;25.80;89.70;;;;;;5054551;28;20053;-74
2023/06/27 10:41:06;;;;;;;4.45;1.33;;;25.60;88.70;;;;;;5036358;28;20505;-74
2023/06/27 10:43:39;;;;;;;3.70;1.20;;;25.90;88.90;;;;;;5036917;28;20098;-74
2023/06/27 10:46:26;;;;;;;4.45;1.30;;;26.30;86.50;;;;;;5054700;28;20045;-74
2023/06/27 10:48:59;;;;;;;4.57;1.30;;;26.40;88.00;;;;;;5036093;28;20055;-74
2023/06/27 10:51:36;;;;;;;5.43;1.40;;;26.90;87.60;;;;;;5037187;28;20041;-74
2023/06/27 10:54:08;;;;;;;5.28;1.50;;;27.00;86.50;;;;;;5035987;28;20522;-75
2023/06/27 10:56:43;;;;;;;3.30;1.05;;;26.90;85.30;;;;;;5036343;28;20143;-74
2023/06/27 10:59:12;;;;;;;5.38;1.20;;;26.70;84.80;;;;;;5054513;28;20481;-74
2023/06/27 11:01:43;;;;;;;4.88;1.58;;;26.80;84.60;;;;;;5035698;28;20077;-74
2023/06/27 11:04:27;;;;;;;4.80;1.40;;;26.90;84.90;;;;;;5054739;28;20049;-74
2023/06/27 11:07:02;;;;;;;4.05;1.20;;;26.40;84.20;;;;;;5036076;28;20045;-74
2023/06/27 11:09:34;;;;;;;4.32;1.20;;;26.10;84.90;;;;;;5033909;28;20413;-74
2023/06/27 11:12:11;;;;;;;6.95;1.40;;;25.80;85.10;;;;;;5017301;28;20041;-74
2023/06/27 11:14:45;;;;;;;6.55;1.20;;;26.00;85.80;;;;;;5034135;28;20509;-74
2023/06/27 11:17:12;;;;;;;5.82;1.45;;;26.20;84.60;;;;;;5033725;28;20134;-74
2023/06/27 11:19:39;;;;;;;7.32;1.45;;;26.20;86.30;;;;;;5016561;28;20073;-74
2023/06/27 11:22:06;;;;;;;4.05;1.15;;;25.90;83.90;;;;;;5050057;28;20049;-75
2023/06/27 11:24:32;;;;;;;6.07;1.23;;;26.00;84.90;;;;;;5036028;28;20060;-74
2023/06/27 11:27:06;;;;;;;4.53;0.98;;;25.90;85.80;;;;;;5054165;28;20086;-74
2023/06/27 11:29:33;;;;;;;6.20;1.33;;;25.80;86.20;;;;;;5035101;28;20052;-74
2023/06/27 11:31:59;;;;;;;7.90;1.33;;;25.90;85.40;;;;;;5036239;28;20059;-74
2023/06/27 11:34:25;;;;;;;5.90;1.25;;;25.70;85.80;;;;;;5036497;28;20080;-73
2023/06/27 11:36:51;;;;;;;4.50;1.10;;;25.80;85.80;;;;;;5052588;28;20045;-74
2023/06/27 11:39:16;;;;;;;5.75;1.30;;;25.90;85.70;;;;;;5053554;28;20079;-73
2023/06/27 11:41:44;;;;;;;6.65;1.38;;;26.10;86.60;;;;;;5035779;28;20053;-74
2023/06/27 11:44:14;;;;;;;6.30;1.40;;;26.20;87.00;;;;;;5053368;28;20071;-74
2023/06/27 11:46:55;;;;;;;4.97;1.20;;;26.40;87.40;;;;;;5053605;28;20076;-74
2023/06/27 11:49:21;;;;;;;4.05;1.13;;;26.10;86.40;;;;;;5035748;28;20049;-74
2023/06/27 11:51:47;;;;;;;6.15;1.30;;;26.20;85.70;;;;;;5052501;28;20489;-74
2023/06/27 11:54:25;;;;;;;4.88;1.48;;;26.40;86.50;;;;;;5035649;28;20052;-74
2023/06/27 11:56:50;;;;;;;3.58;1.20;;;26.20;85.20;;;;;;5053205;28;20051;-74
2023/06/27 11:59:16;;;;;;;7.95;1.50;;;26.00;84.70;;;;;;5035148;28;20045;-74
2023/06/27 12:01:43;;;;;;;6.57;1.60;;;25.80;86.50;;;;;;5035365;28;20543;-74
2023/06/27 12:04:16;;;;;;;5.57;1.33;;;25.30;87.40;;;;;;5034403;28;20068;-74
2023/06/27 12:06:44;;;;;;;3.85;1.30;;;24.90;89.20;;;;;;5035753;28;20067;-74
2023/06/27 12:09:24;;;;;;;5.93;1.20;;;24.90;89.20;;;;;;5035519;28;20496;-73
2023/06/27 12:11:58;;;;;;;5.68;1.38;;;24.80;89.00;;;;;;5033826;28;20053;-73
2023/06/27 12:14:25;;;;;;;4.95;1.25;;;24.60;89.10;;;;;;5053001;28;20040;-73
2023/06/27 12:16:51;;;;;;;5.85;1.35;;;24.80;88.00;;;;;;5052808;28;20468;-74
2023/06/27 12:19:21;;;;;;;4.68;1.17;;;25.10;86.00;;;;;;5052656;28;20120;-74
2023/06/27 12:21:48;;;;;;;4.07;1.30;;;25.00;86.70;;;;;;5035305;28;20140;-73
2023/06/27 12:24:14;;;;;;;4.68;1.30;;;24.70;86.50;;;;;;5035505;28;20120;-73
2023/06/27 12:26:39;;;;;;;5.40;1.27;;;24.90;87.10;;;;;;5034022;28;20461;-73
2023/06/27 12:29:08;;;;;;;4.05;1.10;;;24.90;87.00;;;;;;5034856;28;20037;-74
2023/06/27 12:31:38;;;;;;;5.43;1.13;;;24.90;87.90;;;;;;5052489;28;20048;-74
2023/06/27 12:34:04;;;;;;;7.13;1.50;;;24.90;87.30;;;;;;5034471;28;20527;-73
2023/06/27 12:36:32;;;;;;;3.92;1.33;;;24.50;89.20;;;;;;5034207;28;20057;-73
2023/06/27 12:38:58;;;;;;;10.45;1.30;;;24.80;89.60;;;;;;5034404;28;20060;-74
2023/06/27 12:41:25;;;;;;;5.28;1.50;;;24.90;87.70;;;;;;5051402;28;20562;-73
2023/06/27 12:43:51;;;;;;;6.95;1.50;;;24.80;86.60;;;;;;5034755;28;20501;-73
2023/06/27 12:46:17;;;;;;;7.95;1.63;;;24.50;88.40;;;;;;5033337;28;20370;-73
2023/06/27 12:48:44;;;;;;;7.82;1.40;;;24.30;90.30;;;;;;5052083;28;20073;-73
2023/06/27 12:51:11;;;;;;;3.80;1.35;;;24.20;90.20;;;;;;5052290;28;20045;-73